Time;durP1;ratioP1;P1;durP2;ratioP2;P2;SDS_P1;SDS_P2;PMS_P1;PMS_P2;Temp;Humidity;BMP_temperature;BMP_pressure;BME280_temperature;BME280_humidity;BME280_pressure;Samples;Min_cycle;Max_cycle;Signal;HPM_P1;HPM_P2
2022/03/21 05:22:37;;;;;;;27.98;14.15;;;;;;;4.07;80.11;101734.44;5109118;27;20113;-74
2022/03/21 05:36:00;;;;;;;28.73;16.50;;;;;;;4.34;80.31;101747.69;5102716;22;20104;-72
2022/03/21 05:38:28;;;;;;;27.77;16.00;;;;;;;4.39;81.13;101750.03;5088607;28;20036;-70
2022/03/21 05:40:58;;;;;;;;;;;;;;;4.42;82.26;101752.47;5089477;28;20504;-70
2022/03/21 05:43:24;;;;;;;31.77;15.18;;;;;;;4.49;80.20;101751.13;5088480;28;19999;-70
2022/03/21 05:45:51;;;;;;;31.35;15.82;;;;;;;4.47;81.38;101750.41;5104247;28;20036;-71
2022/03/21 05:51:03;;;;;;;27.40;14.00;;;;;;;4.62;80.14;101762.59;5108913;28;20055;-71
2022/03/21 05:53:29;;;;;;;29.45;14.82;;;;;;;4.66;79.73;101773.81;5108567;28;20032;-70
2022/03/21 05:55:56;;;;;;;25.58;14.50;;;;;;;4.71;80.20;101774.38;5108804;28;20028;-72
2022/03/21 05:58:22;;;;;;;28.52;15.55;;;;;;;4.78;81.06;101772.19;5108785;28;20039;-71
2022/03/21 06:00:48;;;;;;;26.95;14.13;;;;;;;4.83;80.17;101778.03;5108732;28;20404;-70
2022/03/21 06:03:14;;;;;;;24.85;14.07;;;;;;;4.89;80.17;101782.94;5108311;28;20024;-72
2022/03/21 06:05:40;;;;;;;29.15;15.98;;;;;;;4.92;79.59;101774.78;5108378;28;20130;-71
2022/03/21 06:08:08;;;;;;;23.98;14.48;;;;;;;4.95;80.79;101779.84;5108695;28;20036;-70
2022/03/21 06:10:36;;;;;;;27.52;14.75;;;;;;;5.03;80.67;101782.88;5108780;28;20040;-72
2022/03/21 06:13:05;;;;;;;26.73;14.57;;;;;;;5.10;81.46;101781.53;5108718;28;20111;-72
2022/03/21 06:15:38;;;;;;;29.73;14.85;;;;;;;5.12;77.76;101774.34;5108478;28;20027;-70
2022/03/21 06:18:11;;;;;;;24.80;14.10;;;;;;;5.22;77.02;101779.88;5108423;28;20039;-70
2022/03/21 06:20:39;;;;;;;26.80;14.13;;;;;;;5.30;76.24;101792.56;5108348;28;20044;-69
2022/03/21 06:23:04;;;;;;;;;;;;;;;5.33;79.72;101795.00;5108309;28;20047;-70
2022/03/21 06:25:30;;;;;;;22.70;12.65;;;;;;;5.49;75.92;101797.47;5108092;28;20288;-70
2022/03/21 06:27:56;;;;;;;24.23;12.95;;;;;;;5.61;74.89;101797.50;5106967;28;20028;-69
2022/03/21 06:30:21;;;;;;;25.30;13.63;;;;;;;5.77;72.79;101801.75;5107986;28;20125;-70
2022/03/21 06:32:47;;;;;;;27.45;15.07;;;;;;;5.87;72.15;101801.03;5100793;28;20131;-70
2022/03/21 06:35:13;;;;;;;24.92;13.95;;;;;;;6.06;71.60;101807.69;5094218;28;20109;-69
2022/03/21 06:37:40;;;;;;;26.92;14.35;;;;;;;6.18;71.79;101810.34;5094682;28;20032;-75
2022/03/21 06:40:08;;;;;;;25.38;14.40;;;;;;;6.30;74.11;101808.63;5094580;28;20755;-75
2022/03/21 06:42:34;;;;;;;24.13;13.25;;;;;;;6.53;72.50;101818.47;5092846;28;20036;-75
2022/03/21 06:45:00;;;;;;;22.00;13.95;;;;;;;6.63;73.08;101812.50;5092754;28;20039;-74
2022/03/21 06:47:26;;;;;;;20.50;13.35;;;;;;;6.77;72.33;101815.00;5094312;28;20032;-71
2022/03/21 06:49:52;;;;;;;23.48;12.90;;;;;;;6.95;71.32;101823.44;5094339;28;20096;-73
2022/03/21 06:52:18;;;;;;;26.50;14.18;;;;;;;7.16;68.40;101823.66;5093862;28;20024;-71
2022/03/21 06:54:48;;;;;;;22.73;13.73;;;;;;;7.37;66.27;101829.16;5094244;28;20032;-74
2022/03/21 06:57:19;;;;;;;26.65;13.77;;;;;;;7.63;64.23;101838.69;5075963;28;20040;-72
2022/03/21 06:59:48;;;;;;;27.27;14.15;;;;;;;7.93;64.51;101842.63;5094107;28;20111;-72
2022/03/21 07:02:15;;;;;;;26.55;14.73;;;;;;;8.05;64.10;101841.69;5092474;28;20028;-71
2022/03/21 07:04:41;;;;;;;22.85;13.02;;;;;;;8.28;62.17;101843.41;5093904;28;20044;-70
2022/03/21 07:07:07;;;;;;;23.25;13.57;;;;;;;8.38;61.37;101844.41;5093846;28;20039;-72
2022/03/21 07:09:33;;;;;;;24.17;14.68;;;;;;;8.29;62.31;101857.53;5089323;28;20043;-73
2022/03/21 07:11:59;;;;;;;25.17;14.65;;;;;;;8.22;63.39;101857.16;5091609;28;20396;-73
2022/03/21 07:14:24;;;;;;;23.65;13.82;;;;;;;8.25;63.15;101858.72;5093437;28;20036;-72
2022/03/21 07:16:50;;;;;;;21.95;14.10;;;;;;;8.40;60.83;101852.25;5093618;28;20121;-70
2022/03/21 07:19:15;;;;;;;24.77;13.68;;;;;;;8.34;62.35;101848.22;5092220;28;20036;-71
2022/03/21 07:21:41;;;;;;;23.45;12.57;;;;;;;8.15;61.21;101853.28;5092759;28;20487;-71
2022/03/21 07:24:07;;;;;;;19.50;12.30;;;;;;;8.34;62.44;101844.72;5093351;28;20106;-70
2022/03/21 07:26:34;;;;;;;23.88;12.90;;;;;;;8.60;59.23;101848.00;5093346;28;20039;-71
2022/03/21 07:29:01;;;;;;;21.55;13.07;;;;;;;8.84;59.24;101847.88;5093106;28;20035;-71
2022/03/21 07:31:26;;;;;;;19.70;12.00;;;;;;;9.05;58.55;101850.59;5092773;28;20044;-71
2022/03/21 07:33:52;;;;;;;21.80;12.35;;;;;;;9.14;57.59;101855.19;5091428;28;20396;-72
2022/03/21 07:36:17;;;;;;;19.85;12.07;;;;;;;9.11;58.42;101850.94;5093130;28;20043;-72
2022/03/21 07:38:43;;;;;;;24.95;11.55;;;;;;;8.93;57.31;101847.13;5093199;28;20035;-73
2022/03/21 07:41:09;;;;;;;25.58;13.65;;;;;;;9.15;56.99;101854.22;5093128;28;20047;-73
2022/03/21 07:43:35;;;;;;;19.05;11.65;;;;;;;9.49;56.93;101841.66;5090821;28;20024;-72
2022/03/21 07:48:46;;;;;;;19.35;12.57;;;;;;;10.00;56.62;101851.53;5092814;28;20039;-72
2022/03/21 07:51:11;;;;;;;19.90;12.68;;;;;;;9.84;56.86;101859.13;5092630;28;20112;-72
2022/03/21 07:53:38;;;;;;;20.55;12.07;;;;;;;10.07;54.07;101860.69;5092190;28;20111;-72
2022/03/21 07:56:04;;;;;;;24.85;13.02;;;;;;;10.38;53.36;101858.09;5092688;28;20047;-74
2022/03/21 07:58:33;;;;;;;21.27;12.15;;;;;;;10.58;52.93;101857.22;5092824;28;20035;-73
2022/03/21 08:01:00;;;;;;;18.70;11.93;;;;;;;10.74;52.34;101860.19;5092635;28;20058;-74
2022/03/21 08:03:27;;;;;;;18.63;12.00;;;;;;;10.85;52.36;101853.94;5091592;28;20074;-71
2022/03/21 08:05:53;;;;;;;18.27;11.32;;;;;;;11.01;52.89;101854.22;5073124;28;20124;-73
2022/03/21 08:08:20;;;;;;;19.33;11.95;;;;;;;11.20;52.79;101856.09;5072073;28;20127;-73
2022/03/21 08:10:46;;;;;;;20.60;11.83;;;;;;;10.92;52.65;101855.06;5071981;28;20452;-73
2022/03/21 08:13:17;;;;;;;16.77;11.63;;;;;;;11.22;50.10;101864.81;5071237;28;20305;-73
2022/03/21 08:15:44;;;;;;;18.88;11.43;;;;;;;11.46;50.88;101859.06;5072304;28;20508;-73
2022/03/21 08:18:11;;;;;;;18.93;11.77;;;;;;;11.42;51.48;101860.34;5072128;28;20119;-73
2022/03/21 08:20:39;;;;;;;21.52;13.15;;;;;;;11.52;51.28;101869.19;5071433;28;20317;-74
2022/03/21 08:23:07;;;;;;;19.92;12.05;;;;;;;11.66;50.32;101855.41;5071007;28;20044;-73
2022/03/21 08:25:34;;;;;;;18.85;11.15;;;;;;;11.39;50.44;101858.78;5071915;28;20090;-73
2022/03/21 08:27:59;;;;;;;17.73;11.57;;;;;;;11.40;51.20;101864.97;5071291;28;20043;-74
2022/03/21 08:30:27;;;;;;;20.70;12.05;;;;;;;11.33;51.23;101863.84;5070403;28;20771;-74
2022/03/21 08:32:53;;;;;;;22.95;13.35;;;;;;;11.51;51.34;101867.50;5070527;28;20032;-75
2022/03/21 08:35:20;;;;;;;20.80;11.80;;;;;;;11.41;51.53;101867.50;5073999;28;20044;-75
2022/03/21 08:37:47;;;;;;;21.67;13.27;;;;;;;11.65;51.30;101863.56;5091054;28;20497;-74
2022/03/21 08:40:13;;;;;;;22.13;13.40;;;;;;;11.77;50.81;101873.13;5092160;28;20620;-73
2022/03/21 08:42:39;;;;;;;21.23;12.88;;;;;;;12.07;50.40;101874.81;5092045;28;20087;-74
2022/03/21 08:45:06;;;;;;;20.23;12.75;;;;;;;12.43;47.62;101874.97;5091804;28;20044;-74
2022/03/21 08:47:32;;;;;;;20.08;12.05;;;;;;;12.73;46.35;101873.88;5092190;28;20059;-73
2022/03/21 08:49:58;;;;;;;20.10;12.02;;;;;;;12.93;47.11;101874.63;5091966;28;20129;-73
2022/03/21 08:52:24;;;;;;;19.83;12.05;;;;;;;12.47;46.71;101869.22;5090335;28;20126;-74
2022/03/21 08:54:50;;;;;;;23.80;12.43;;;;;;;13.09;45.64;101868.63;5091777;28;20028;-73
2022/03/21 08:57:16;;;;;;;23.40;12.23;;;;;;;13.42;45.62;101865.31;5090360;28;20501;-73
2022/03/21 08:59:42;;;;;;;21.33;13.40;;;;;;;13.52;45.66;101867.94;5091788;28;20138;-73
2022/03/21 09:02:08;;;;;;;22.63;12.82;;;;;;;13.81;44.20;101867.66;5090214;28;20028;-74
2022/03/21 09:04:39;;;;;;;21.67;11.95;;;;;;;14.04;43.86;101862.66;5091717;28;20028;-73
2022/03/21 09:07:08;;;;;;;20.63;12.20;;;;;;;14.35;42.55;101866.56;5091819;28;20055;-74
2022/03/21 09:09:34;;;;;;;21.33;12.73;;;;;;;13.97;43.41;101861.63;5091823;28;20457;-73
2022/03/21 09:12:00;;;;;;;19.58;12.73;;;;;;;14.26;43.41;101867.47;5091367;28;20053;-75
2022/03/21 09:14:26;;;;;;;21.65;12.80;;;;;;;14.55;41.82;101856.47;5091875;28;20450;-74
2022/03/21 09:16:52;;;;;;;20.83;12.43;;;;;;;14.90;41.59;101863.47;5090284;28;20508;-74
2022/03/21 09:19:19;;;;;;;18.83;12.68;;;;;;;14.55;45.43;101859.16;5091654;28;20032;-74
2022/03/21 09:21:46;;;;;;;21.05;12.65;;;;;;;14.72;41.04;101859.22;5091667;28;20160;-73
2022/03/21 09:24:12;;;;;;;17.98;13.05;;;;;;;14.91;39.03;101857.09;5091778;28;20164;-74
2022/03/21 09:26:38;;;;;;;24.45;12.88;;;;;;;14.65;40.68;101853.66;5091657;28;20038;-74
2022/03/21 09:29:05;;;;;;;21.50;13.63;;;;;;;14.32;41.11;101852.63;5091748;28;20110;-73
2022/03/21 09:31:36;;;;;;;20.88;13.20;;;;;;;14.92;41.58;101856.09;5091414;28;20039;-74
2022/03/21 09:34:02;;;;;;;21.27;13.02;;;;;;;15.04;41.62;101855.81;5091617;28;20117;-74
2022/03/21 09:36:28;;;;;;;21.20;13.65;;;;;;;15.27;39.85;101850.66;5091700;28;20043;-74
2022/03/21 09:38:54;;;;;;;18.77;12.85;;;;;;;15.73;39.86;101851.91;5091592;28;20043;-74
2022/03/21 09:41:27;;;;;;;20.15;12.68;;;;;;;15.67;39.77;101849.91;5090137;28;20107;-74
2022/03/21 09:43:55;;;;;;;17.95;12.18;;;;;;;16.12;38.43;101852.03;5090064;28;20090;-74
2022/03/21 09:46:20;;;;;;;;;;;;;;;16.52;37.89;101853.78;5091627;28;20047;-74
2022/03/21 09:48:48;;;;;;;18.88;12.57;;;;;;;15.94;40.04;101844.16;5091461;28;19974;-74
2022/03/21 09:51:19;;;;;;;22.45;12.73;;;;;;;16.67;36.70;101843.13;5091427;28;20131;-74
2022/03/21 09:53:45;;;;;;;18.52;11.60;;;;;;;16.72;35.93;101842.66;5091616;28;20434;-74
2022/03/21 09:56:11;;;;;;;18.67;12.50;;;;;;;16.84;38.17;101838.56;5091361;28;20035;-74
2022/03/21 09:58:38;;;;;;;18.35;11.88;;;;;;;17.42;37.57;101833.66;5090216;28;20575;-73
2022/03/21 10:01:05;;;;;;;21.30;11.75;;;;;;;18.16;34.61;101830.13;5091019;28;20034;-74
2022/03/21 10:03:33;;;;;;;18.85;12.30;;;;;;;18.43;34.23;101823.25;5091146;28;20497;-74
2022/03/21 10:06:00;;;;;;;18.17;12.60;;;;;;;18.45;32.28;101828.44;5090151;28;20105;-73
2022/03/21 10:08:28;;;;;;;18.60;12.18;;;;;;;18.75;32.68;101823.91;5093604;28;20052;-74
2022/03/21 10:10:56;;;;;;;19.77;12.90;;;;;;;18.81;33.77;101825.00;5093817;28;20040;-74
2022/03/21 10:13:27;;;;;;;16.38;12.32;;;;;;;19.55;30.73;101825.56;5094572;28;20050;-73
2022/03/21 10:16:13;;;;;;;18.92;11.75;;;;;;;18.65;32.71;101818.78;5094966;28;20058;-72
2022/03/21 10:18:55;;;;;;;18.77;11.98;;;;;;;19.90;29.79;101815.72;5094670;28;20066;-74
2022/03/21 10:21:22;;;;;;;21.70;13.32;;;;;;;19.91;29.53;101811.97;5094971;28;20059;-74
2022/03/21 10:24:07;;;;;;;;;;;;;;;19.63;30.59;101811.97;5095010;28;20070;-74
2022/03/21 10:26:44;;;;;;;19.05;11.57;;;;;;;20.16;30.21;101804.25;5093713;28;19912;-75
2022/03/21 10:29:11;;;;;;;;;;;;;;;20.20;29.13;101810.91;5095162;28;20562;-73
2022/03/21 10:31:44;;;;;;;16.77;11.57;;;;;;;20.92;30.02;101815.03;5094412;28;19924;-74
2022/03/21 10:34:12;;;;;;;18.80;12.35;;;;;;;21.39;27.87;101805.16;5093163;28;20492;-74
2022/03/21 10:36:57;;;;;;;16.50;12.00;;;;;;;21.32;27.68;101797.03;5094729;28;20488;-74
2022/03/21 10:39:23;;;;;;;16.35;11.30;;;;;;;21.18;28.97;101806.13;5094907;28;20031;-73
2022/03/21 10:41:55;;;;;;;17.13;12.02;;;;;;;20.90;28.63;101808.97;5092875;28;20032;-73
2022/03/21 10:44:21;;;;;;;16.92;11.85;;;;;;;21.25;30.09;101804.25;5092935;28;20036;-74
2022/03/21 10:46:54;;;;;;;16.50;11.60;;;;;;;21.64;28.65;101802.66;5094378;28;20036;-74
2022/03/21 10:49:38;;;;;;;20.05;12.60;;;;;;;21.67;26.89;101799.53;5094408;28;20445;-74
2022/03/21 10:52:05;;;;;;;17.90;11.95;;;;;;;22.31;26.16;101803.44;5094037;28;20078;-73
2022/03/21 10:54:37;;;;;;;17.25;11.80;;;;;;;21.81;28.11;101800.34;5094216;28;20047;-74
2022/03/21 10:57:03;;;;;;;19.48;11.93;;;;;;;20.99;30.68;101793.38;5094183;28;20024;-73
2022/03/21 10:59:29;;;;;;;19.80;11.63;;;;;;;21.15;28.61;101795.72;5094077;28;20040;-73
2022/03/21 11:02:10;;;;;;;18.95;12.60;;;;;;;21.43;27.42;101792.03;5093790;28;20036;-73
2022/03/21 11:04:37;;;;;;;18.42;11.90;;;;;;;21.85;27.73;101793.47;5093810;28;20047;-73
2022/03/21 11:07:04;;;;;;;16.77;11.93;;;;;;;21.80;27.12;101785.97;5094000;28;20501;-73
2022/03/21 11:09:32;;;;;;;20.02;12.05;;;;;;;22.09;26.81;101783.84;5093786;28;20043;-73
2022/03/21 11:12:00;;;;;;;17.48;11.38;;;;;;;22.79;26.45;101790.28;5093408;28;20388;-73
2022/03/21 11:14:26;;;;;;;18.13;12.48;;;;;;;22.89;26.39;101779.00;5093733;28;20043;-74
2022/03/21 11:16:53;;;;;;;15.27;11.18;;;;;;;22.81;25.89;101782.75;5093684;28;20036;-74
2022/03/21 11:19:18;;;;;;;19.33;11.90;;;;;;;23.30;25.22;101775.78;5093625;28;20488;-74
2022/03/21 11:21:45;;;;;;;15.63;11.25;;;;;;;23.40;25.21;101776.09;5093313;28;20039;-74
2022/03/21 11:24:12;;;;;;;16.40;11.52;;;;;;;23.79;24.02;101771.41;5093368;28;20038;-75
2022/03/21 11:26:57;;;;;;;15.77;11.82;;;;;;;23.55;25.49;101762.19;5093721;28;20059;-75
2022/03/21 11:29:35;;;;;;;15.65;10.68;;;;;;;22.24;28.75;101765.47;5051935;28;20040;-75
2022/03/21 11:32:04;;;;;;;16.02;11.30;;;;;;;21.25;30.24;101771.75;5093143;28;20039;-73
2022/03/21 11:34:42;;;;;;;15.82;11.35;;;;;;;21.61;29.52;101765.97;5117242;22;20105;-70
2022/03/21 11:37:26;;;;;;;14.73;10.68;;;;;;;21.43;29.16;101762.19;5052205;28;20067;-72
2022/03/21 11:40:23;;;;;;;14.10;10.13;;;;;;;22.27;27.23;101762.31;5053404;28;20119;-71
2022/03/21 11:42:49;;;;;;;15.90;10.18;;;;;;;21.93;28.24;101752.56;5034799;28;20037;-70
2022/03/21 11:45:26;;;;;;;18.30;10.38;;;;;;;21.89;28.00;101746.72;5053240;28;20052;-70
2022/03/21 11:48:10;;;;;;;;;;;;;;;21.46;31.37;101750.97;5053557;28;20036;-70
2022/03/21 11:50:36;;;;;;;16.58;11.38;;;;;;;21.07;30.33;101747.16;5068444;28;20321;-70
2022/03/21 11:53:07;;;;;;;16.30;10.27;;;;;;;21.71;29.13;101737.56;5052868;28;20029;-73
2022/03/21 11:55:42;;;;;;;16.23;10.63;;;;;;;22.32;28.29;101740.78;5052524;28;20178;-70
2022/03/21 11:58:38;;;;;;;17.50;11.48;;;;;;;23.37;25.48;101726.78;5051213;28;20041;-71
2022/03/21 12:01:06;;;;;;;16.33;10.85;;;;;;;21.77;29.02;101736.72;5052445;28;20466;-70
2022/03/21 12:03:33;;;;;;;14.68;10.73;;;;;;;22.09;28.39;101729.59;5034192;28;20041;-70
2022/03/21 12:06:24;;;;;;;12.75;9.45;;;;;;;23.54;25.45;101733.34;5052259;28;20041;-71
2022/03/21 12:08:57;;;;;;;17.15;10.55;;;;;;;23.25;26.39;101732.13;5052309;28;20029;-70
2022/03/21 12:11:37;;;;;;;15.60;11.20;;;;;;;24.15;24.39;101724.34;5050858;28;20102;-71
2022/03/21 12:14:25;;;;;;;14.40;10.55;;;;;;;24.14;25.39;101719.13;5052026;28;20037;-71
2022/03/21 12:17:03;;;;;;;16.75;10.93;;;;;;;25.06;23.65;101714.34;5052348;28;20036;-71
2022/03/21 12:20:02;;;;;;;15.15;9.98;;;;;;;24.47;24.61;101708.69;5051155;28;20082;-70
2022/03/21 12:22:34;;;;;;;13.52;9.85;;;;;;;24.01;24.80;101715.50;5052018;28;20133;-70
2022/03/21 12:25:09;;;;;;;15.25;10.25;;;;;;;22.79;26.26;101706.06;5050970;28;20126;-73
2022/03/21 12:27:39;;;;;;;14.70;10.15;;;;;;;24.27;24.77;101705.38;5054833;28;20431;-74
2022/03/21 12:30:27;;;;;;;12.48;9.50;;;;;;;23.78;26.63;101696.28;5038637;28;20048;-74
2022/03/21 12:32:58;;;;;;;13.90;9.45;;;;;;;24.92;23.48;101701.97;5034515;28;20348;-75
2022/03/21 12:35:39;;;;;;;14.50;10.10;;;;;;;23.55;25.44;101703.19;5053571;28;20048;-74
2022/03/21 12:38:24;;;;;;;13.45;10.43;;;;;;;24.53;24.30;101696.88;5056314;28;20382;-74
2022/03/21 12:40:59;;;;;;;21.05;10.75;;;;;;;25.13;23.98;101694.09;5051925;28;20083;-71
2022/03/21 12:43:26;;;;;;;13.48;9.93;;;;;;;24.84;22.92;101690.34;5051497;28;20029;-70
2022/03/21 12:46:06;;;;;;;16.23;9.48;;;;;;;24.68;23.98;101691.00;5051572;28;20052;-71
2022/03/21 12:48:34;;;;;;;14.05;10.25;;;;;;;23.80;25.13;101689.59;5050721;28;20094;-70
2022/03/21 12:51:00;;;;;;;15.63;9.65;;;;;;;24.55;24.30;101681.13;5050335;28;20052;-71
2022/03/21 12:53:43;;;;;;;14.60;10.20;;;;;;;24.37;24.11;101686.59;5050041;28;20124;-70
2022/03/21 12:56:10;;;;;;;15.63;10.27;;;;;;;24.06;25.63;101683.00;5051426;28;20033;-70
2022/03/21 12:58:37;;;;;;;;;;;;;;;23.96;24.90;101684.59;5052420;28;20032;-70
2022/03/21 13:01:03;;;;;;;12.98;10.13;;;;;;;23.80;24.64;101686.03;5050866;28;19920;-71
2022/03/21 13:03:30;;;;;;;12.20;9.23;;;;;;;24.44;23.98;101679.19;5051784;28;20094;-71
2022/03/21 13:11:26;;;;;;;13.50;9.70;;;;;;;24.00;24.55;101673.03;5051407;28;20037;-71
2022/03/21 13:13:54;;;;;;;14.20;9.48;;;;;;;22.90;25.96;101661.94;5050090;28;20048;-71
2022/03/21 13:16:21;;;;;;;13.02;9.02;;;;;;;22.08;27.82;101671.75;5051178;28;20033;-71
2022/03/21 13:18:47;;;;;;;14.05;9.00;;;;;;;21.97;28.11;101664.28;5050241;28;20514;-71
2022/03/21 13:21:13;;;;;;;12.65;9.13;;;;;;;22.79;25.97;101665.34;5051296;28;20508;-70
2022/03/21 13:23:43;;;;;;;13.88;8.98;;;;;;;22.48;25.81;101661.56;5051124;28;20036;-71
2022/03/21 13:26:14;;;;;;;9.48;7.90;;;;;;;22.33;26.01;101658.31;5051621;28;20482;-70
2022/03/21 13:28:42;;;;;;;15.73;9.50;;;;;;;22.49;26.50;101656.94;5050513;28;20493;-71
2022/03/21 13:31:14;;;;;;;15.50;9.05;;;;;;;21.90;27.73;101658.03;5051452;28;20036;-71
2022/03/21 13:33:49;;;;;;;13.13;9.05;;;;;;;21.21;29.23;101651.28;5052721;28;20055;-70
2022/03/21 13:36:23;;;;;;;11.35;8.40;;;;;;;22.33;27.08;101652.88;5050657;28;20047;-70
2022/03/21 13:39:06;;;;;;;13.63;8.10;;;;;;;23.42;25.04;101651.66;5050764;28;20470;-71
2022/03/21 13:41:32;;;;;;;12.48;8.77;;;;;;;22.95;25.62;101653.97;5052210;28;20071;-70
2022/03/21 13:44:05;;;;;;;12.80;8.85;;;;;;;23.16;25.27;101651.91;5054093;28;20040;-71
2022/03/21 13:46:31;;;;;;;17.42;9.95;;;;;;;22.29;26.70;101650.81;5054939;28;20041;-71
2022/03/21 13:48:57;;;;;;;12.85;8.82;;;;;;;23.02;25.15;101648.50;5054055;28;20047;-71
2022/03/21 13:51:29;;;;;;;10.70;7.53;;;;;;;23.47;25.56;101656.41;5055493;28;20045;-71
2022/03/21 13:54:14;;;;;;;12.98;8.02;;;;;;;23.05;25.99;101652.63;5054042;28;20036;-71
2022/03/21 13:56:40;;;;;;;11.32;7.38;;;;;;;22.48;26.00;101644.44;5055051;28;20563;-70
2022/03/21 13:59:17;;;;;;;11.48;7.38;;;;;;;21.51;27.59;101640.00;5054119;28;20041;-71
2022/03/21 14:01:46;;;;;;;;;;;;;;;21.26;27.41;101648.78;5055322;28;20131;-71
2022/03/21 14:04:20;;;;;;;12.68;8.77;;;;;;;21.79;27.07;101647.88;5070322;28;19917;-70
2022/03/21 14:07:01;;;;;;;13.10;8.52;;;;;;;22.09;26.64;101637.34;5054048;28;20033;-73
2022/03/21 14:09:28;;;;;;;12.55;7.32;;;;;;;21.99;26.36;101637.78;5055676;28;20033;-73
2022/03/21 14:12:10;;;;;;;13.05;7.40;;;;;;;22.26;26.24;101638.50;5071092;28;20108;-72
2022/03/21 14:14:36;;;;;;;9.68;7.28;;;;;;;21.91;26.22;101629.91;5038549;28;20041;-71
2022/03/21 14:17:06;;;;;;;9.55;6.25;;;;;;;21.57;27.08;101633.72;5054642;28;20033;-72
2022/03/21 14:19:34;;;;;;;11.25;6.55;;;;;;;21.48;26.95;101640.44;5054442;28;20044;-71
2022/03/21 14:22:00;;;;;;;10.98;6.85;;;;;;;20.67;28.08;101625.25;5054225;28;20033;-75
2022/03/21 14:24:28;;;;;;;16.38;7.95;;;;;;;20.82;28.30;101622.34;5036346;28;20036;-75
2022/03/21 14:26:54;;;;;;;15.43;7.97;;;;;;;20.42;29.26;101629.53;5053270;28;20030;-74
2022/03/21 14:29:20;;;;;;;10.63;7.30;;;;;;;20.53;29.49;101624.34;5054497;28;20036;-74
2022/03/21 14:31:47;;;;;;;15.23;8.90;;;;;;;19.69;30.39;101615.72;5054172;28;20522;-76
2022/03/21 14:34:16;;;;;;;13.68;8.88;;;;;;;19.72;30.25;101618.03;5053418;28;20061;-76
2022/03/21 14:36:43;;;;;;;17.88;8.30;;;;;;;19.77;30.29;101611.00;5052804;28;20560;-75
2022/03/21 14:39:09;;;;;;;12.35;7.78;;;;;;;19.86;30.11;101618.94;5053108;28;20039;-74
2022/03/21 14:41:35;;;;;;;12.40;7.47;;;;;;;19.90;31.34;101612.09;5036408;28;20124;-74
2022/03/21 14:44:01;;;;;;;12.95;8.25;;;;;;;19.67;30.42;101625.91;5054039;28;20064;-74
2022/03/21 14:46:27;;;;;;;13.07;8.68;;;;;;;18.97;31.10;101616.88;5053646;28;20733;-76
2022/03/21 14:48:53;;;;;;;24.23;9.10;;;;;;;18.66;31.80;101617.22;5053348;28;20040;-73
2022/03/21 14:51:18;;;;;;;13.50;8.32;;;;;;;18.30;34.03;101618.09;5053979;28;20120;-75
2022/03/21 14:53:44;;;;;;;16.05;9.35;;;;;;;18.62;32.50;101600.56;5053296;28;20048;-76
2022/03/21 14:56:10;;;;;;;15.75;10.30;;;;;;;18.31;33.83;101610.81;5052638;28;20029;-75
2022/03/21 14:58:37;;;;;;;16.35;9.52;;;;;;;18.63;32.27;101599.53;5053827;28;20025;-74
2022/03/21 15:01:08;;;;;;;15.32;9.52;;;;;;;18.97;33.34;101608.78;5053670;28;20036;-74
2022/03/21 15:03:35;;;;;;;16.33;10.15;;;;;;;18.86;32.54;101617.44;5053528;28;20033;-77
2022/03/21 15:06:01;;;;;;;22.50;10.68;;;;;;;18.82;31.99;101610.72;5053923;28;20036;-75
2022/03/21 15:08:27;;;;;;;14.35;9.95;;;;;;;18.61;32.67;101604.28;5053561;28;20029;-73
2022/03/21 15:10:53;;;;;;;17.60;10.15;;;;;;;18.64;32.37;101601.19;5035736;28;20063;-73
2022/03/21 15:13:18;;;;;;;15.48;10.80;;;;;;;18.31;32.61;101608.97;5051907;28;20041;-73
2022/03/21 15:15:46;;;;;;;18.15;10.60;;;;;;;18.01;32.65;101602.81;5053429;28;20100;-73
2022/03/21 15:18:15;;;;;;;18.75;10.20;;;;;;;18.01;33.34;101602.00;5052163;28;20037;-71
2022/03/21 15:20:41;;;;;;;18.33;10.50;;;;;;;18.10;33.36;101596.28;5052083;28;20033;-73
2022/03/21 15:23:07;;;;;;;17.35;10.40;;;;;;;18.18;33.17;101592.63;5052891;28;20390;-72
2022/03/21 15:25:34;;;;;;;15.40;10.35;;;;;;;18.08;33.53;101592.13;5053117;28;20037;-71
2022/03/21 15:28:01;;;;;;;17.35;9.70;;;;;;;18.09;33.50;101600.00;5051941;28;20045;-70
2022/03/21 15:30:26;;;;;;;15.70;10.25;;;;;;;17.87;33.40;101585.66;5053167;28;20041;-71
2022/03/21 15:32:52;;;;;;;13.55;8.52;;;;;;;18.00;34.05;101595.78;5051673;28;20029;-71
2022/03/21 15:35:18;;;;;;;19.45;9.55;;;;;;;17.56;33.68;101583.16;5053155;28;20138;-70
2022/03/21 15:43:13;;;;;;;14.15;8.25;;;;;;;17.51;33.93;101585.56;5052762;28;20513;-69
2022/03/21 15:45:39;;;;;;;14.30;8.13;;;;;;;17.36;33.64;101579.34;5052844;28;20041;-70
2022/03/21 15:48:05;;;;;;;12.65;8.00;;;;;;;17.44;33.48;101590.03;5053036;28;20033;-70
2022/03/21 15:50:33;;;;;;;13.80;8.00;;;;;;;17.39;34.03;101580.81;5052662;28;20075;-68
2022/03/21 15:53:01;;;;;;;10.98;8.23;;;;;;;17.42;33.46;101581.31;5051202;28;20039;-69
2022/03/21 15:55:28;;;;;;;14.73;8.68;;;;;;;17.24;34.04;101592.44;5051109;28;20052;-69
2022/03/21 15:57:56;;;;;;;12.98;8.48;;;;;;;17.24;33.96;101588.91;5051179;28;20049;-69
2022/03/21 16:00:23;;;;;;;;;;;;;;;17.14;34.56;101591.03;5053043;28;20094;-69
2022/03/21 16:02:49;;;;;;;19.77;8.70;;;;;;;17.16;34.19;101587.16;5050901;28;19917;-68
2022/03/21 16:05:14;;;;;;;13.70;8.75;;;;;;;17.21;34.44;101583.88;5050142;28;20033;-68
2022/03/21 16:07:41;;;;;;;14.73;9.10;;;;;;;17.16;33.97;101591.69;5051044;28;20459;-68
2022/03/21 16:10:09;;;;;;;13.00;7.93;;;;;;;16.98;34.48;101584.78;5052264;28;20452;-69
2022/03/21 16:12:38;;;;;;;13.18;8.77;;;;;;;17.08;34.02;101581.81;5050598;28;20045;-68
2022/03/21 16:15:09;;;;;;;16.27;9.50;;;;;;;17.03;34.06;101587.78;5052284;28;20116;-68
2022/03/21 16:17:36;;;;;;;16.00;9.40;;;;;;;16.90;34.04;101582.19;5052110;28;20029;-68
2022/03/21 16:20:07;;;;;;;17.80;10.65;;;;;;;16.90;34.03;101584.03;5050880;28;20395;-69
2022/03/21 16:22:33;;;;;;;17.58;9.82;;;;;;;16.94;33.76;101591.53;5050594;28;20052;-68
2022/03/21 16:24:58;;;;;;;19.20;10.32;;;;;;;16.88;34.01;101589.56;5052003;28;20166;-68
2022/03/21 16:27:26;;;;;;;16.23;9.65;;;;;;;16.93;34.00;101595.25;5052433;28;20033;-68
2022/03/21 16:29:52;;;;;;;;;;;;;;;16.79;34.55;101588.00;5052507;28;20041;-68
2022/03/21 16:32:17;;;;;;;17.52;10.55;;;;;;;16.76;34.18;101586.50;5051642;28;20496;-68
2022/03/21 16:34:47;;;;;;;16.80;10.35;;;;;;;16.76;34.00;101586.50;5050537;28;20444;-68
2022/03/21 16:37:15;;;;;;;18.38;10.13;;;;;;;16.74;34.20;101585.00;5052062;28;20033;-69
2022/03/21 16:39:40;;;;;;;19.60;9.80;;;;;;;16.65;34.40;101578.00;5051980;28;20048;-68
2022/03/21 16:42:07;;;;;;;18.13;10.98;;;;;;;16.72;33.93;101589.72;5051449;28;20040;-69
2022/03/21 16:44:32;;;;;;;16.63;10.15;;;;;;;16.55;34.34;101579.06;5051734;28;20398;-69
2022/03/21 16:46:58;;;;;;;18.25;10.60;;;;;;;16.55;34.26;101587.13;5050408;28;20393;-69
2022/03/21 16:49:26;;;;;;;14.73;10.32;;;;;;;16.44;34.56;101576.81;5051769;28;20506;-69
2022/03/21 16:51:51;;;;;;;15.90;10.32;;;;;;;16.44;34.38;101587.56;5051272;28;20033;-69
2022/03/21 16:54:21;;;;;;;17.80;9.93;;;;;;;16.34;34.73;101578.88;5051589;28;20090;-70
2022/03/21 16:56:48;;;;;;;17.75;10.15;;;;;;;16.37;34.74;101586.63;5033562;28;20033;-69
2022/03/21 16:59:14;;;;;;;15.48;9.98;;;;;;;16.33;34.79;101584.44;5051507;28;20048;-69
2022/03/21 17:01:39;;;;;;;18.08;10.38;;;;;;;16.28;34.51;101583.13;5051193;28;20414;-69
2022/03/21 17:04:06;;;;;;;14.95;9.98;;;;;;;16.22;34.81;101583.84;5051427;28;20037;-70
2022/03/21 17:06:34;;;;;;;16.38;10.55;;;;;;;16.17;34.58;101578.19;5051346;28;20529;-70
2022/03/21 17:09:02;;;;;;;17.40;10.27;;;;;;;16.02;35.06;101583.44;5050218;28;20397;-70
2022/03/21 17:11:28;;;;;;;14.27;9.80;;;;;;;15.95;35.12;101587.84;5051241;28;20551;-70
2022/03/21 17:13:54;;;;;;;17.05;10.23;;;;;;;15.89;35.03;101580.50;5049844;28;20509;-70